Decoded Metar for KDIK (DICKINSON in ND, USA) (IATA:DIK) | Meteo·Mobile Aviation Weather
aviador You're here:

KDIK Decoded Metar

DICKINSON in ND, USA
Report Time2018-09-19 14:56:00
UTC Time2018-09-19 15:19:44
Flight Rules ifr IFR
Wind050° at 12 kt
W.Decomp.*RWY 07: 10.4 kt HW 6 kt LCW
RWY 32: 2.1 kt HW 11.8 kt RCW
W.Rank050° ranks 26
Current wind is above 050° avg. (8.3)
Visibility9999 m
Phenomena:N/A
Clouds:Overcast 005 Hf
Expected CloudBase > 800 ft AGL from Temp-Dew spread
Ceiling500 ft
Temp07°C (ISA -3)
Dew Point05°C (87% RH)
AAT1.6°C
QNH1019 hPa
Density Alt2,169 ft
Elevation2,585 ft
Report Wrong Elevation
Raw Report
KDIK 191456Z AUTO 05012KT 7SM OVC005 07/05 A3010 RMK AO2 SLP204
T00670050 51009=

Extra information for KDIK:More info

Metar Taf Metar & Taf Last 4 Metars F.Rules Stats Wind Profile Meteogram Temp Stats Airport Information Weather charts Add Link Nearby VenuesMetar ALERT Operation Metar Decoded Social comments

AIRNAV info for KDIK